sensor_id;sensor_type;location;lat;lon;timestamp;temperature;humidity
17918;DHT22;9084;50.956;3.106;2023-02-04T00:02:25;10.40;99.90
17918;DHT22;9084;50.956;3.106;2023-02-04T00:04:53;10.40;99.90
17918;DHT22;9084;50.956;3.106;2023-02-04T00:07:18;10.40;99.90
17918;DHT22;9084;50.956;3.106;2023-02-04T00:09:44;10.40;99.90
17918;DHT22;9084;50.956;3.106;2023-02-04T00:12:14;10.50;99.90
17918;DHT22;9084;50.956;3.106;2023-02-04T00:14:40;10.40;99.90
17918;DHT22;9084;50.956;3.106;2023-02-04T00:17:06;10.40;99.90
17918;DHT22;9084;50.956;3.106;2023-02-04T00:19:35;10.50;99.90
17918;DHT22;9084;50.956;3.106;2023-02-04T00:22:03;10.50;99.90
17918;DHT22;9084;50.956;3.106;2023-02-04T00:24:32;10.50;99.90
17918;DHT22;9084;50.956;3.106;2023-02-04T00:26:58;10.50;99.90
17918;DHT22;9084;50.956;3.106;2023-02-04T00:29:23;10.50;99.90
17918;DHT22;9084;50.956;3.106;2023-02-04T00:31:51;10.50;99.90
17918;DHT22;9084;50.956;3.106;2023-02-04T00:34:17;10.50;99.90
17918;DHT22;9084;50.956;3.106;2023-02-04T00:36:45;10.50;99.90
17918;DHT22;9084;50.956;3.106;2023-02-04T00:39:15;10.50;99.90
17918;DHT22;9084;50.956;3.106;2023-02-04T00:41:43;10.50;99.90
17918;DHT22;9084;50.956;3.106;2023-02-04T00:44:09;10.50;99.90
17918;DHT22;9084;50.956;3.106;2023-02-04T00:46:35;10.50;99.90
17918;DHT22;9084;50.956;3.106;2023-02-04T00:49:01;10.50;99.90
17918;DHT22;9084;50.956;3.106;2023-02-04T00:51:29;10.50;99.90
17918;DHT22;9084;50.956;3.106;2023-02-04T00:53:54;10.50;99.90
17918;DHT22;9084;50.956;3.106;2023-02-04T00:56:20;10.50;99.90
17918;DHT22;9084;50.956;3.106;2023-02-04T00:58:45;10.50;99.90
17918;DHT22;9084;50.956;3.106;2023-02-04T01:01:11;10.50;99.90
17918;DHT22;9084;50.956;3.106;2023-02-04T01:03:37;10.50;99.90
17918;DHT22;9084;50.956;3.106;2023-02-04T01:06:05;10.50;99.90
17918;DHT22;9084;50.956;3.106;2023-02-04T01:08:30;10.40;99.90
17918;DHT22;9084;50.956;3.106;2023-02-04T01:10:56;10.50;99.90
17918;DHT22;9084;50.956;3.106;2023-02-04T01:13:24;10.50;99.90
17918;DHT22;9084;50.956;3.106;2023-02-04T01:15:55;10.50;99.90
17918;DHT22;9084;50.956;3.106;2023-02-04T01:18:23;10.50;99.90
17918;DHT22;9084;50.956;3.106;2023-02-04T01:20:49;10.50;99.90
17918;DHT22;9084;50.956;3.106;2023-02-04T01:23:14;10.50;99.90
17918;DHT22;9084;50.956;3.106;2023-02-04T01:25:42;10.40;99.90
17918;DHT22;9084;50.956;3.106;2023-02-04T01:28:10;10.40;99.90
17918;DHT22;9084;50.956;3.106;2023-02-04T01:30:39;10.40;99.90
17918;DHT22;9084;50.956;3.106;2023-02-04T01:33:09;10.40;99.90
17918;DHT22;9084;50.956;3.106;2023-02-04T01:35:36;10.40;99.90
17918;DHT22;9084;50.956;3.106;2023-02-04T01:38:02;10.40;99.90
17918;DHT22;9084;50.956;3.106;2023-02-04T01:40:31;10.40;99.90
17918;DHT22;9084;50.956;3.106;2023-02-04T01:42:57;10.40;99.90
17918;DHT22;9084;50.956;3.106;2023-02-04T01:45:24;10.40;99.90
17918;DHT22;9084;50.956;3.106;2023-02-04T01:47:50;10.40;99.90
17918;DHT22;9084;50.956;3.106;2023-02-04T01:50:16;10.40;99.90
17918;DHT22;9084;50.956;3.106;2023-02-04T01:52:43;10.40;99.90
17918;DHT22;9084;50.956;3.106;2023-02-04T01:55:13;10.40;99.90
17918;DHT22;9084;50.956;3.106;2023-02-04T01:57:40;10.40;99.90
17918;DHT22;9084;50.956;3.106;2023-02-04T02:00:15;10.40;99.90
17918;DHT22;9084;50.956;3.106;2023-02-04T02:02:46;10.40;99.90
17918;DHT22;9084;50.956;3.106;2023-02-04T02:05:18;10.30;99.90
17918;DHT22;9084;50.956;3.106;2023-02-04T02:07:46;10.30;99.90
17918;DHT22;9084;50.956;3.106;2023-02-04T02:10:13;10.30;99.90
17918;DHT22;9084;50.956;3.106;2023-02-04T02:12:40;10.30;99.90
17918;DHT22;9084;50.956;3.106;2023-02-04T02:15:07;10.30;99.90
17918;DHT22;9084;50.956;3.106;2023-02-04T02:17:33;10.30;99.90
17918;DHT22;9084;50.956;3.106;2023-02-04T02:19:59;10.30;99.90
17918;DHT22;9084;50.956;3.106;2023-02-04T02:22:35;10.30;99.90
17918;DHT22;9084;50.956;3.106;2023-02-04T02:25:11;10.30;99.90
17918;DHT22;9084;50.956;3.106;2023-02-04T02:27:39;10.30;99.90
17918;DHT22;9084;50.956;3.106;2023-02-04T02:30:09;10.30;99.90
17918;DHT22;9084;50.956;3.106;2023-02-04T02:32:38;10.30;99.90
17918;DHT22;9084;50.956;3.106;2023-02-04T02:35:08;10.20;99.90
17918;DHT22;9084;50.956;3.106;2023-02-04T02:37:33;10.20;99.90
17918;DHT22;9084;50.956;3.106;2023-02-04T02:40:02;10.20;99.90
17918;DHT22;9084;50.956;3.106;2023-02-04T02:42:30;10.20;99.90
17918;DHT22;9084;50.956;3.106;2023-02-04T02:44:57;10.20;99.90
17918;DHT22;9084;50.956;3.106;2023-02-04T02:47:23;10.20;99.90
17918;DHT22;9084;50.956;3.106;2023-02-04T02:49:52;10.20;99.90
17918;DHT22;9084;50.956;3.106;2023-02-04T02:52:21;10.20;99.90
17918;DHT22;9084;50.956;3.106;2023-02-04T02:54:47;10.20;99.90
17918;DHT22;9084;50.956;3.106;2023-02-04T02:57:20;10.20;99.90
17918;DHT22;9084;50.956;3.106;2023-02-04T02:59:47;10.30;99.90
17918;DHT22;9084;50.956;3.106;2023-02-04T03:02:19;10.30;99.90
17918;DHT22;9084;50.956;3.106;2023-02-04T03:04:55;10.30;99.90
17918;DHT22;9084;50.956;3.106;2023-02-04T03:07:23;10.20;99.90
17918;DHT22;9084;50.956;3.106;2023-02-04T03:09:49;10.20;99.90
17918;DHT22;9084;50.956;3.106;2023-02-04T03:12:18;10.20;99.90
17918;DHT22;9084;50.956;3.106;2023-02-04T03:14:45;10.20;99.90
17918;DHT22;9084;50.956;3.106;2023-02-04T03:17:11;10.20;99.90
17918;DHT22;9084;50.956;3.106;2023-02-04T03:19:40;10.30;99.90
17918;DHT22;9084;50.956;3.106;2023-02-04T03:22:06;10.20;99.90
17918;DHT22;9084;50.956;3.106;2023-02-04T03:24:32;10.20;99.90
17918;DHT22;9084;50.956;3.106;2023-02-04T03:27:01;10.20;99.90
17918;DHT22;9084;50.956;3.106;2023-02-04T03:29:27;10.20;99.90
17918;DHT22;9084;50.956;3.106;2023-02-04T03:31:53;10.20;99.90
17918;DHT22;9084;50.956;3.106;2023-02-04T03:34:21;10.20;99.90
17918;DHT22;9084;50.956;3.106;2023-02-04T03:36:52;10.20;99.90
17918;DHT22;9084;50.956;3.106;2023-02-04T03:39:17;10.20;99.90
17918;DHT22;9084;50.956;3.106;2023-02-04T03:41:45;10.20;99.90
17918;DHT22;9084;50.956;3.106;2023-02-04T03:44:11;10.20;99.90
17918;DHT22;9084;50.956;3.106;2023-02-04T03:46:39;10.20;99.90
17918;DHT22;9084;50.956;3.106;2023-02-04T03:49:04;10.20;99.90
17918;DHT22;9084;50.956;3.106;2023-02-04T03:51:30;10.10;99.90
17918;DHT22;9084;50.956;3.106;2023-02-04T03:53:58;10.00;99.90
17918;DHT22;9084;50.956;3.106;2023-02-04T03:56:26;10.00;99.90
17918;DHT22;9084;50.956;3.106;2023-02-04T03:58:52;10.00;99.90
17918;DHT22;9084;50.956;3.106;2023-02-04T04:01:17;9.90;99.90
17918;DHT22;9084;50.956;3.106;2023-02-04T04:03:43;9.90;99.90
17918;DHT22;9084;50.956;3.106;2023-02-04T04:06:09;9.90;99.90
17918;DHT22;9084;50.956;3.106;2023-02-04T04:08:36;9.90;99.90
17918;DHT22;9084;50.956;3.106;2023-02-04T04:11:02;9.80;99.90
17918;DHT22;9084;50.956;3.106;2023-02-04T04:13:30;9.90;99.90
17918;DHT22;9084;50.956;3.106;2023-02-04T04:15:56;9.90;99.90
17918;DHT22;9084;50.956;3.106;2023-02-04T04:18:22;9.80;99.90
17918;DHT22;9084;50.956;3.106;2023-02-04T04:20:47;9.80;99.90
17918;DHT22;9084;50.956;3.106;2023-02-04T04:23:16;9.70;99.90
17918;DHT22;9084;50.956;3.106;2023-02-04T04:25:44;9.60;99.90
17918;DHT22;9084;50.956;3.106;2023-02-04T04:28:10;9.60;99.90
17918;DHT22;9084;50.956;3.106;2023-02-04T04:30:36;9.50;99.90
17918;DHT22;9084;50.956;3.106;2023-02-04T04:33:01;9.50;99.90
17918;DHT22;9084;50.956;3.106;2023-02-04T04:35:29;9.50;99.90
17918;DHT22;9084;50.956;3.106;2023-02-04T04:37:58;9.40;99.90
17918;DHT22;9084;50.956;3.106;2023-02-04T04:40:23;9.40;99.90
17918;DHT22;9084;50.956;3.106;2023-02-04T04:42:49;9.40;99.90
17918;DHT22;9084;50.956;3.106;2023-02-04T04:45:14;9.40;99.90
17918;DHT22;9084;50.956;3.106;2023-02-04T04:47:40;9.40;99.90
17918;DHT22;9084;50.956;3.106;2023-02-04T04:50:06;9.30;99.90
17918;DHT22;9084;50.956;3.106;2023-02-04T04:52:32;9.30;99.90
17918;DHT22;9084;50.956;3.106;2023-02-04T04:55:00;9.20;99.90
17918;DHT22;9084;50.956;3.106;2023-02-04T04:57:30;9.20;99.90
17918;DHT22;9084;50.956;3.106;2023-02-04T04:59:56;9.20;99.90
17918;DHT22;9084;50.956;3.106;2023-02-04T05:02:21;9.20;99.90
17918;DHT22;9084;50.956;3.106;2023-02-04T05:04:47;9.20;99.90
17918;DHT22;9084;50.956;3.106;2023-02-04T05:07:15;9.20;99.90
17918;DHT22;9084;50.956;3.106;2023-02-04T05:09:41;9.10;99.90
17918;DHT22;9084;50.956;3.106;2023-02-04T05:12:06;9.10;99.90
17918;DHT22;9084;50.956;3.106;2023-02-04T05:14:34;9.10;99.90
17918;DHT22;9084;50.956;3.106;2023-02-04T05:17:00;9.00;99.90
17918;DHT22;9084;50.956;3.106;2023-02-04T05:19:25;9.00;99.90
17918;DHT22;9084;50.956;3.106;2023-02-04T05:21:53;9.00;99.90
17918;DHT22;9084;50.956;3.106;2023-02-04T05:24:19;8.90;99.90
17918;DHT22;9084;50.956;3.106;2023-02-04T05:26:45;8.90;99.90
17918;DHT22;9084;50.956;3.106;2023-02-04T05:29:13;8.80;99.90
17918;DHT22;9084;50.956;3.106;2023-02-04T05:31:38;8.80;99.90
17918;DHT22;9084;50.956;3.106;2023-02-04T05:34:04;8.70;99.90
17918;DHT22;9084;50.956;3.106;2023-02-04T05:36:32;8.70;99.90
17918;DHT22;9084;50.956;3.106;2023-02-04T05:38:57;8.60;99.90
17918;DHT22;9084;50.956;3.106;2023-02-04T05:41:23;8.60;99.90
17918;DHT22;9084;50.956;3.106;2023-02-04T05:43:51;8.60;99.90
17918;DHT22;9084;50.956;3.106;2023-02-04T05:46:17;8.50;99.90
17918;DHT22;9084;50.956;3.106;2023-02-04T05:48:42;8.50;99.90
17918;DHT22;9084;50.956;3.106;2023-02-04T05:51:08;8.40;99.90
17918;DHT22;9084;50.956;3.106;2023-02-04T05:53:34;8.40;99.90
17918;DHT22;9084;50.956;3.106;2023-02-04T05:56:01;8.40;99.90
17918;DHT22;9084;50.956;3.106;2023-02-04T05:58:27;8.30;99.90
17918;DHT22;9084;50.956;3.106;2023-02-04T06:01:01;8.30;99.90
17918;DHT22;9084;50.956;3.106;2023-02-04T06:03:28;8.30;99.90
17918;DHT22;9084;50.956;3.106;2023-02-04T06:05:58;8.30;99.90
17918;DHT22;9084;50.956;3.106;2023-02-04T06:08:24;8.30;99.90
17918;DHT22;9084;50.956;3.106;2023-02-04T06:10:49;8.20;99.90
17918;DHT22;9084;50.956;3.106;2023-02-04T06:13:18;8.20;99.90
17918;DHT22;9084;50.956;3.106;2023-02-04T06:15:46;8.20;99.90
17918;DHT22;9084;50.956;3.106;2023-02-04T06:18:11;8.20;99.90
17918;DHT22;9084;50.956;3.106;2023-02-04T06:20:38;8.20;99.90
17918;DHT22;9084;50.956;3.106;2023-02-04T06:23:03;8.20;99.90
17918;DHT22;9084;50.956;3.106;2023-02-04T06:25:29;8.20;99.90
17918;DHT22;9084;50.956;3.106;2023-02-04T06:27:55;8.20;99.90
17918;DHT22;9084;50.956;3.106;2023-02-04T06:30:23;8.10;99.90
17918;DHT22;9084;50.956;3.106;2023-02-04T06:32:49;8.10;99.90
17918;DHT22;9084;50.956;3.106;2023-02-04T06:35:17;8.00;99.90
17918;DHT22;9084;50.956;3.106;2023-02-04T06:37:43;8.00;99.90
17918;DHT22;9084;50.956;3.106;2023-02-04T06:40:10;7.90;99.90
17918;DHT22;9084;50.956;3.106;2023-02-04T06:42:35;7.90;99.90
17918;DHT22;9084;50.956;3.106;2023-02-04T06:45:01;7.90;99.90
17918;DHT22;9084;50.956;3.106;2023-02-04T06:47:29;7.90;99.90
17918;DHT22;9084;50.956;3.106;2023-02-04T06:49:55;7.90;99.90
17918;DHT22;9084;50.956;3.106;2023-02-04T06:52:21;7.90;99.90
17918;DHT22;9084;50.956;3.106;2023-02-04T06:54:46;8.00;99.90
17918;DHT22;9084;50.956;3.106;2023-02-04T06:57:14;8.00;99.90
17918;DHT22;9084;50.956;3.106;2023-02-04T06:59:42;8.10;99.90
17918;DHT22;9084;50.956;3.106;2023-02-04T07:02:10;8.10;99.90
17918;DHT22;9084;50.956;3.106;2023-02-04T07:04:38;8.10;99.90
17918;DHT22;9084;50.956;3.106;2023-02-04T07:07:08;8.10;99.90
17918;DHT22;9084;50.956;3.106;2023-02-04T07:09:34;8.10;99.90
17918;DHT22;9084;50.956;3.106;2023-02-04T07:12:00;8.10;99.90
17918;DHT22;9084;50.956;3.106;2023-02-04T07:14:27;8.00;99.90
17918;DHT22;9084;50.956;3.106;2023-02-04T07:16:53;8.00;99.90
17918;DHT22;9084;50.956;3.106;2023-02-04T07:19:18;7.90;99.90
17918;DHT22;9084;50.956;3.106;2023-02-04T07:21:45;7.90;99.90
17918;DHT22;9084;50.956;3.106;2023-02-04T07:24:10;7.90;99.90
17918;DHT22;9084;50.956;3.106;2023-02-04T07:26:38;7.90;99.90
17918;DHT22;9084;50.956;3.106;2023-02-04T07:29:04;7.90;99.90
17918;DHT22;9084;50.956;3.106;2023-02-04T07:31:34;7.90;99.90
17918;DHT22;9084;50.956;3.106;2023-02-04T07:34:04;7.90;99.90
17918;DHT22;9084;50.956;3.106;2023-02-04T07:36:30;7.80;99.90
17918;DHT22;9084;50.956;3.106;2023-02-04T07:38:55;7.80;99.90
17918;DHT22;9084;50.956;3.106;2023-02-04T07:41:21;7.80;99.90
17918;DHT22;9084;50.956;3.106;2023-02-04T07:43:47;7.80;99.90
17918;DHT22;9084;50.956;3.106;2023-02-04T07:46:15;7.80;99.90
17918;DHT22;9084;50.956;3.106;2023-02-04T07:48:43;7.80;99.90
17918;DHT22;9084;50.956;3.106;2023-02-04T07:51:11;7.80;99.90
17918;DHT22;9084;50.956;3.106;2023-02-04T07:53:41;7.80;99.90
17918;DHT22;9084;50.956;3.106;2023-02-04T07:56:07;7.90;99.90
17918;DHT22;9084;50.956;3.106;2023-02-04T07:58:35;7.90;99.90
17918;DHT22;9084;50.956;3.106;2023-02-04T08:01:01;7.90;99.90
17918;DHT22;9084;50.956;3.106;2023-02-04T08:03:28;8.00;99.90
17918;DHT22;9084;50.956;3.106;2023-02-04T08:05:57;8.10;99.90
17918;DHT22;9084;50.956;3.106;2023-02-04T08:08:22;8.10;99.90
17918;DHT22;9084;50.956;3.106;2023-02-04T08:10:50;8.20;99.90
17918;DHT22;9084;50.956;3.106;2023-02-04T08:13:16;8.20;99.90
17918;DHT22;9084;50.956;3.106;2023-02-04T08:15:44;8.30;99.90
17918;DHT22;9084;50.956;3.106;2023-02-04T08:18:10;8.30;99.90
17918;DHT22;9084;50.956;3.106;2023-02-04T08:20:35;8.40;99.90
17918;DHT22;9084;50.956;3.106;2023-02-04T08:23:01;8.50;99.90
17918;DHT22;9084;50.956;3.106;2023-02-04T08:25:26;8.50;99.90
17918;DHT22;9084;50.956;3.106;2023-02-04T08:27:56;8.60;99.90
17918;DHT22;9084;50.956;3.106;2023-02-04T08:30:22;8.70;99.90
17918;DHT22;9084;50.956;3.106;2023-02-04T08:32:47;8.90;99.90
17918;DHT22;9084;50.956;3.106;2023-02-04T08:35:15;9.00;99.90
17918;DHT22;9084;50.956;3.106;2023-02-04T08:37:41;9.00;99.90
17918;DHT22;9084;50.956;3.106;2023-02-04T08:40:09;9.20;99.90
17918;DHT22;9084;50.956;3.106;2023-02-04T08:42:35;9.30;99.90
17918;DHT22;9084;50.956;3.106;2023-02-04T08:45:03;9.30;99.90
17918;DHT22;9084;50.956;3.106;2023-02-04T08:47:29;9.40;99.90
17918;DHT22;9084;50.956;3.106;2023-02-04T08:49:54;9.50;99.90
17918;DHT22;9084;50.956;3.106;2023-02-04T08:52:22;9.60;99.90
17918;DHT22;9084;50.956;3.106;2023-02-04T08:54:51;9.70;99.90
17918;DHT22;9084;50.956;3.106;2023-02-04T08:57:16;9.80;99.90
17918;DHT22;9084;50.956;3.106;2023-02-04T08:59:42;9.90;99.90
17918;DHT22;9084;50.956;3.106;2023-02-04T09:02:10;10.00;99.90
17918;DHT22;9084;50.956;3.106;2023-02-04T09:04:36;10.00;99.90
17918;DHT22;9084;50.956;3.106;2023-02-04T09:07:01;10.10;99.90
17918;DHT22;9084;50.956;3.106;2023-02-04T09:09:29;10.10;99.90
17918;DHT22;9084;50.956;3.106;2023-02-04T09:11:55;10.20;99.90
17918;DHT22;9084;50.956;3.106;2023-02-04T09:14:21;10.30;99.90
17918;DHT22;9084;50.956;3.106;2023-02-04T09:16:48;10.40;99.90
17918;DHT22;9084;50.956;3.106;2023-02-04T09:19:16;10.40;99.90
17918;DHT22;9084;50.956;3.106;2023-02-04T09:21:48;10.50;99.90
17918;DHT22;9084;50.956;3.106;2023-02-04T09:24:16;10.50;99.90
17918;DHT22;9084;50.956;3.106;2023-02-04T09:26:41;10.60;99.90
17918;DHT22;9084;50.956;3.106;2023-02-04T09:29:09;10.60;99.90
17918;DHT22;9084;50.956;3.106;2023-02-04T09:31:37;10.60;99.90
17918;DHT22;9084;50.956;3.106;2023-02-04T09:34:03;10.70;99.90
17918;DHT22;9084;50.956;3.106;2023-02-04T09:36:29;10.70;99.90
17918;DHT22;9084;50.956;3.106;2023-02-04T09:38:57;10.70;99.90
17918;DHT22;9084;50.956;3.106;2023-02-04T09:41:22;10.70;99.90
17918;DHT22;9084;50.956;3.106;2023-02-04T09:43:50;10.80;99.90
17918;DHT22;9084;50.956;3.106;2023-02-04T09:46:21;10.90;99.90
17918;DHT22;9084;50.956;3.106;2023-02-04T09:48:50;10.90;99.90
17918;DHT22;9084;50.956;3.106;2023-02-04T09:51:22;10.90;99.90
17918;DHT22;9084;50.956;3.106;2023-02-04T09:53:51;11.00;99.90
17918;DHT22;9084;50.956;3.106;2023-02-04T09:56:20;11.00;99.90
17918;DHT22;9084;50.956;3.106;2023-02-04T09:58:46;11.00;99.90
17918;DHT22;9084;50.956;3.106;2023-02-04T10:01:17;11.10;99.90
17918;DHT22;9084;50.956;3.106;2023-02-04T10:03:45;11.10;99.90
17918;DHT22;9084;50.956;3.106;2023-02-04T10:06:17;11.20;99.90
17918;DHT22;9084;50.956;3.106;2023-02-04T10:08:43;11.20;99.90
17918;DHT22;9084;50.956;3.106;2023-02-04T10:11:10;11.20;99.90
17918;DHT22;9084;50.956;3.106;2023-02-04T10:13:51;11.20;99.90
17918;DHT22;9084;50.956;3.106;2023-02-04T10:16:32;11.30;99.90
17918;DHT22;9084;50.956;3.106;2023-02-04T10:19:01;11.30;99.90
17918;DHT22;9084;50.956;3.106;2023-02-04T10:21:34;11.30;99.90
17918;DHT22;9084;50.956;3.106;2023-02-04T10:24:04;11.30;99.90
17918;DHT22;9084;50.956;3.106;2023-02-04T10:26:32;11.30;99.90
17918;DHT22;9084;50.956;3.106;2023-02-04T10:28:59;11.30;99.90
17918;DHT22;9084;50.956;3.106;2023-02-04T10:34:17;11.30;99.90
17918;DHT22;9084;50.956;3.106;2023-02-04T10:36:46;11.40;99.90
17918;DHT22;9084;50.956;3.106;2023-02-04T10:39:18;11.40;99.90
17918;DHT22;9084;50.956;3.106;2023-02-04T10:41:52;11.50;99.90
17918;DHT22;9084;50.956;3.106;2023-02-04T10:44:33;11.50;99.90
17918;DHT22;9084;50.956;3.106;2023-02-04T10:47:01;11.50;99.90
17918;DHT22;9084;50.956;3.106;2023-02-04T10:49:27;11.60;99.90
17918;DHT22;9084;50.956;3.106;2023-02-04T10:51:52;11.60;99.90
17918;DHT22;9084;50.956;3.106;2023-02-04T10:54:20;11.60;99.90
17918;DHT22;9084;50.956;3.106;2023-02-04T10:57:27;11.70;99.90
17918;DHT22;9084;50.956;3.106;2023-02-04T10:59:58;11.70;99.90
17918;DHT22;9084;50.956;3.106;2023-02-04T11:02:35;11.70;99.90
17918;DHT22;9084;50.956;3.106;2023-02-04T11:05:10;11.80;99.90
17918;DHT22;9084;50.956;3.106;2023-02-04T11:07:38;11.80;99.90
17918;DHT22;9084;50.956;3.106;2023-02-04T11:10:04;11.80;99.90
17918;DHT22;9084;50.956;3.106;2023-02-04T11:15:41;11.80;99.90
17918;DHT22;9084;50.956;3.106;2023-02-04T11:18:10;11.90;99.90
17918;DHT22;9084;50.956;3.106;2023-02-04T11:20:36;11.90;99.90
17918;DHT22;9084;50.956;3.106;2023-02-04T11:26:10;12.20;99.90
17918;DHT22;9084;50.956;3.106;2023-02-04T11:31:13;12.20;99.90
17918;DHT22;9084;50.956;3.106;2023-02-04T11:33:41;12.20;99.90
17918;DHT22;9084;50.956;3.106;2023-02-04T11:36:09;12.20;99.90
17918;DHT22;9084;50.956;3.106;2023-02-04T11:38:36;12.20;99.90
17918;DHT22;9084;50.956;3.106;2023-02-04T11:41:11;12.20;99.90
17918;DHT22;9084;50.956;3.106;2023-02-04T11:43:39;12.30;99.90
17918;DHT22;9084;50.956;3.106;2023-02-04T11:46:16;12.30;99.90
17918;DHT22;9084;50.956;3.106;2023-02-04T11:48:42;12.30;99.90
17918;DHT22;9084;50.956;3.106;2023-02-04T11:51:12;12.30;99.90
17918;DHT22;9084;50.956;3.106;2023-02-04T11:53:38;12.30;99.90
17918;DHT22;9084;50.956;3.106;2023-02-04T11:56:13;12.30;99.90
17918;DHT22;9084;50.956;3.106;2023-02-04T11:58:39;12.40;99.90
17918;DHT22;9084;50.956;3.106;2023-02-04T12:01:19;12.40;68.30
17918;DHT22;9084;50.956;3.106;2023-02-04T12:03:56;12.50;72.80
17918;DHT22;9084;50.956;3.106;2023-02-04T12:06:24;12.50;65.30
17918;DHT22;9084;50.956;3.106;2023-02-04T12:08:52;12.50;69.80
17918;DHT22;9084;50.956;3.106;2023-02-04T12:11:33;12.50;65.70
17918;DHT22;9084;50.956;3.106;2023-02-04T12:14:15;12.50;55.50
17918;DHT22;9084;50.956;3.106;2023-02-04T12:16:49;12.40;53.50
17918;DHT22;9084;50.956;3.106;2023-02-04T12:19:21;12.40;55.40
17918;DHT22;9084;50.956;3.106;2023-02-04T12:21:49;12.30;60.00
17918;DHT22;9084;50.956;3.106;2023-02-04T12:24:14;12.20;64.00
17918;DHT22;9084;50.956;3.106;2023-02-04T12:26:40;12.30;63.40
17918;DHT22;9084;50.956;3.106;2023-02-04T12:29:08;12.30;70.80
17918;DHT22;9084;50.956;3.106;2023-02-04T12:31:34;12.30;71.30
17918;DHT22;9084;50.956;3.106;2023-02-04T12:34:00;12.30;78.90
17918;DHT22;9084;50.956;3.106;2023-02-04T12:36:26;12.30;75.90
17918;DHT22;9084;50.956;3.106;2023-02-04T12:38:57;12.30;77.30
17918;DHT22;9084;50.956;3.106;2023-02-04T12:41:27;12.40;76.40
17918;DHT22;9084;50.956;3.106;2023-02-04T12:43:53;12.40;79.50
17918;DHT22;9084;50.956;3.106;2023-02-04T12:46:20;12.40;81.50
17918;DHT22;9084;50.956;3.106;2023-02-04T12:48:48;12.40;75.10
17918;DHT22;9084;50.956;3.106;2023-02-04T12:51:14;12.40;66.10
17918;DHT22;9084;50.956;3.106;2023-02-04T12:53:42;12.40;58.10
17918;DHT22;9084;50.956;3.106;2023-02-04T12:56:08;12.40;60.90
17918;DHT22;9084;50.956;3.106;2023-02-04T12:58:36;12.40;55.80
17918;DHT22;9084;50.956;3.106;2023-02-04T13:01:06;12.30;53.30
17918;DHT22;9084;50.956;3.106;2023-02-04T13:03:32;12.40;58.30
17918;DHT22;9084;50.956;3.106;2023-02-04T13:05:57;12.40;66.00
17918;DHT22;9084;50.956;3.106;2023-02-04T13:08:28;12.40;62.50
17918;DHT22;9084;50.956;3.106;2023-02-04T13:10:54;12.40;71.10
17918;DHT22;9084;50.956;3.106;2023-02-04T13:13:21;12.40;67.60
17918;DHT22;9084;50.956;3.106;2023-02-04T13:15:47;12.40;67.20
17918;DHT22;9084;50.956;3.106;2023-02-04T13:18:16;12.40;62.70
17918;DHT22;9084;50.956;3.106;2023-02-04T13:20:45;12.40;68.30
17918;DHT22;9084;50.956;3.106;2023-02-04T13:23:13;12.30;71.30
17918;DHT22;9084;50.956;3.106;2023-02-04T13:25:38;12.30;67.20
17918;DHT22;9084;50.956;3.106;2023-02-04T13:28:05;12.20;71.10
17918;DHT22;9084;50.956;3.106;2023-02-04T13:30:32;12.20;83.70
17918;DHT22;9084;50.956;3.106;2023-02-04T13:33:00;12.20;83.20
17918;DHT22;9084;50.956;3.106;2023-02-04T13:35:31;12.20;86.10
17918;DHT22;9084;50.956;3.106;2023-02-04T13:37:59;12.30;79.90
17918;DHT22;9084;50.956;3.106;2023-02-04T13:40:24;12.30;84.20
17918;DHT22;9084;50.956;3.106;2023-02-04T13:42:50;12.20;90.10
17918;DHT22;9084;50.956;3.106;2023-02-04T13:45:16;12.30;93.60
17918;DHT22;9084;50.956;3.106;2023-02-04T13:47:44;12.20;91.90
17918;DHT22;9084;50.956;3.106;2023-02-04T13:50:15;12.20;92.10
17918;DHT22;9084;50.956;3.106;2023-02-04T13:52:41;12.20;94.50
17918;DHT22;9084;50.956;3.106;2023-02-04T13:55:08;12.10;95.80
17918;DHT22;9084;50.956;3.106;2023-02-04T13:57:34;12.10;97.00
17918;DHT22;9084;50.956;3.106;2023-02-04T14:00:05;12.00;99.60
17918;DHT22;9084;50.956;3.106;2023-02-04T14:02:33;12.00;99.90
17918;DHT22;9084;50.956;3.106;2023-02-04T14:04:59;12.00;99.90
17918;DHT22;9084;50.956;3.106;2023-02-04T14:07:26;12.00;99.90
17918;DHT22;9084;50.956;3.106;2023-02-04T14:09:54;12.00;99.90
17918;DHT22;9084;50.956;3.106;2023-02-04T14:12:22;11.90;99.90
17918;DHT22;9084;50.956;3.106;2023-02-04T14:14:50;11.90;99.90
17918;DHT22;9084;50.956;3.106;2023-02-04T14:17:15;11.90;99.90
17918;DHT22;9084;50.956;3.106;2023-02-04T14:19:43;11.90;99.90
17918;DHT22;9084;50.956;3.106;2023-02-04T14:22:09;11.90;99.90
17918;DHT22;9084;50.956;3.106;2023-02-04T14:24:37;11.90;99.90
17918;DHT22;9084;50.956;3.106;2023-02-04T14:27:07;11.90;99.90
17918;DHT22;9084;50.956;3.106;2023-02-04T14:29:34;11.90;99.90
17918;DHT22;9084;50.956;3.106;2023-02-04T14:32:02;11.90;99.90
17918;DHT22;9084;50.956;3.106;2023-02-04T14:34:30;11.90;99.90
17918;DHT22;9084;50.956;3.106;2023-02-04T14:36:58;11.80;99.90
17918;DHT22;9084;50.956;3.106;2023-02-04T14:39:26;11.80;99.90
17918;DHT22;9084;50.956;3.106;2023-02-04T14:41:54;11.80;99.90
17918;DHT22;9084;50.956;3.106;2023-02-04T14:44:24;11.80;99.90
17918;DHT22;9084;50.956;3.106;2023-02-04T14:46:50;11.80;99.90
17918;DHT22;9084;50.956;3.106;2023-02-04T14:49:16;11.80;99.90
17918;DHT22;9084;50.956;3.106;2023-02-04T14:51:44;11.80;99.90
17918;DHT22;9084;50.956;3.106;2023-02-04T14:54:10;11.70;99.90
17918;DHT22;9084;50.956;3.106;2023-02-04T14:56:35;11.70;99.90
17918;DHT22;9084;50.956;3.106;2023-02-04T14:59:03;11.60;99.90
17918;DHT22;9084;50.956;3.106;2023-02-04T15:01:31;11.60;99.90
17918;DHT22;9084;50.956;3.106;2023-02-04T15:03:59;11.50;99.90
17918;DHT22;9084;50.956;3.106;2023-02-04T15:06:27;11.50;99.90
17918;DHT22;9084;50.956;3.106;2023-02-04T15:08:53;11.50;99.90
17918;DHT22;9084;50.956;3.106;2023-02-04T15:11:19;11.50;99.90
17918;DHT22;9084;50.956;3.106;2023-02-04T15:13:46;11.50;99.90
17918;DHT22;9084;50.956;3.106;2023-02-04T15:16:12;11.40;99.90
17918;DHT22;9084;50.956;3.106;2023-02-04T15:18:44;11.40;99.90
17918;DHT22;9084;50.956;3.106;2023-02-04T15:21:09;11.30;99.90
17918;DHT22;9084;50.956;3.106;2023-02-04T15:23:38;11.30;99.90
17918;DHT22;9084;50.956;3.106;2023-02-04T15:26:08;11.20;99.90
17918;DHT22;9084;50.956;3.106;2023-02-04T15:28:38;11.20;99.90
17918;DHT22;9084;50.956;3.106;2023-02-04T15:31:06;11.20;99.90
17918;DHT22;9084;50.956;3.106;2023-02-04T15:33:36;11.20;99.90
17918;DHT22;9084;50.956;3.106;2023-02-04T15:36:02;11.10;99.90
17918;DHT22;9084;50.956;3.106;2023-02-04T15:38:28;11.10;99.90
17918;DHT22;9084;50.956;3.106;2023-02-04T15:40:56;11.10;99.90
17918;DHT22;9084;50.956;3.106;2023-02-04T15:43:26;11.10;99.90
17918;DHT22;9084;50.956;3.106;2023-02-04T15:45:56;11.10;99.90
17918;DHT22;9084;50.956;3.106;2023-02-04T15:48:22;11.00;99.90
17918;DHT22;9084;50.956;3.106;2023-02-04T15:50:49;11.00;99.90
17918;DHT22;9084;50.956;3.106;2023-02-04T15:53:17;10.90;99.90
17918;DHT22;9084;50.956;3.106;2023-02-04T15:55:43;10.90;99.90
17918;DHT22;9084;50.956;3.106;2023-02-04T15:58:11;10.90;99.90
17918;DHT22;9084;50.956;3.106;2023-02-04T16:00:40;10.90;99.90
17918;DHT22;9084;50.956;3.106;2023-02-04T16:03:10;10.80;99.90
17918;DHT22;9084;50.956;3.106;2023-02-04T16:05:35;10.80;99.90